Time;durP1;ratioP1;P1;durP2;ratioP2;P2;SDS_P1;SDS_P2;PMS_P1;PMS_P2;Temp;Humidity;BMP_temperature;BMP_pressure;BME280_temperature;BME280_humidity;BME280_pressure;Samples;Min_cycle;Max_cycle;Signal;HPM_P1;HPM_P2
2022/01/01 00:02:20;;;;;;;23.57;16.57;;;;;;;8.33;100.00;97128.50;5022209;28;20080;-80
2022/01/01 00:04:47;;;;;;;122.77;81.40;;;;;;;8.29;100.00;97136.75;5006760;28;20053;-80
2022/01/01 00:07:16;;;;;;;157.37;96.77;;;;;;;8.30;100.00;97141.03;5006696;28;20061;-81
2022/01/01 00:09:43;;;;;;;132.27;88.47;;;;;;;8.30;100.00;97143.66;4999824;28;20071;-80
2022/01/01 00:12:10;;;;;;;32.67;25.93;;;;;;;8.27;100.00;97137.69;5027818;28;20083;-80
2022/01/01 00:14:36;;;;;;;21.80;14.47;;;;;;;8.30;100.00;97143.66;4998395;28;20040;-79
2022/01/01 00:17:03;;;;;;;19.20;12.77;;;;;;;8.30;100.00;97146.28;5003449;28;20404;-80
2022/01/01 00:19:28;;;;;;;21.87;13.80;;;;;;;8.27;100.00;97145.56;4994240;28;20048;-80
2022/01/01 00:21:54;;;;;;;24.20;13.97;;;;;;;8.26;100.00;97153.56;5028032;28;20037;-80
2022/01/01 00:24:20;;;;;;;19.70;13.63;;;;;;;8.23;100.00;97145.94;5021758;28;20112;-80
2022/01/01 00:26:45;;;;;;;23.43;14.43;;;;;;;8.29;100.00;97155.09;5024505;28;20048;-81
2022/01/01 00:29:12;;;;;;;25.23;15.17;;;;;;;8.24;100.00;97165.94;5008311;28;20691;-80
2022/01/01 00:31:37;;;;;;;22.87;14.43;;;;;;;8.22;100.00;97163.44;5024516;28;20037;-80
2022/01/01 00:34:03;;;;;;;23.33;14.90;;;;;;;8.23;100.00;97164.28;5027229;28;20114;-80
2022/01/01 00:36:31;;;;;;;22.67;14.00;;;;;;;8.21;100.00;97167.00;5030169;28;20056;-80
2022/01/01 00:39:02;;;;;;;25.23;17.87;;;;;;;8.19;100.00;97168.94;5028201;28;20037;-80
2022/01/01 00:41:28;;;;;;;26.53;16.93;;;;;;;8.24;100.00;97179.84;5009690;28;20044;-80
2022/01/01 00:43:57;;;;;;;39.17;28.60;;;;;;;8.22;100.00;97178.34;5031456;28;20262;-79
2022/01/01 00:47:16;;;;;;;25.13;17.97;;;;;;;8.18;100.00;97183.00;5011729;28;20029;-80
2022/01/01 00:49:42;;;;;;;23.60;15.87;;;;;;;8.15;100.00;97183.22;4990497;28;20042;-80
2022/01/01 00:52:07;;;;;;;27.77;17.40;;;;;;;8.12;100.00;97188.72;5008339;28;20103;-79
2022/01/01 00:54:38;;;;;;;27.13;17.40;;;;;;;8.07;100.00;97190.84;5007526;28;20041;-80
2022/01/01 00:57:05;;;;;;;32.73;19.47;;;;;;;8.09;100.00;97185.50;5025498;28;20033;-80
2022/01/01 00:59:32;;;;;;;26.80;17.53;;;;;;;8.04;100.00;97196.31;5032031;28;21029;-80
2022/01/01 01:01:59;;;;;;;25.57;17.73;;;;;;;8.02;100.00;97193.00;5025389;28;20595;-80
2022/01/01 01:04:27;;;;;;;25.67;16.03;;;;;;;7.99;100.00;97188.00;5010162;28;20033;-86
2022/01/01 01:06:53;;;;;;;26.90;16.57;;;;;;;7.97;100.00;97190.72;5001548;28;20029;-84
2022/01/01 01:09:19;;;;;;;19.67;14.13;;;;;;;7.96;100.00;97196.09;5029917;28;20033;-86
2022/01/01 01:11:52;;;;;;;23.53;15.43;;;;;;;7.95;100.00;97191.81;5000633;28;20072;-86
2022/01/01 01:14:20;;;;;;;23.52;14.55;;;;;;;7.94;100.00;97195.38;5010493;28;20038;-86
2022/01/01 01:16:54;;;;;;;24.13;15.40;;;;;;;7.93;100.00;97199.78;5011443;28;20407;-79
2022/01/01 01:19:20;;;;;;;21.30;13.33;;;;;;;7.93;100.00;97193.72;5026603;28;20057;-79
2022/01/01 01:21:48;;;;;;;25.17;14.30;;;;;;;7.92;100.00;97195.50;5009610;28;20110;-79
2022/01/01 01:24:15;;;;;;;24.17;15.90;;;;;;;7.95;100.00;97194.44;5026373;28;20044;-79
2022/01/01 01:26:48;;;;;;;18.90;12.53;;;;;;;7.95;100.00;97191.81;5011211;28;20029;-80
2022/01/01 01:29:14;;;;;;;;;;;;;;;7.92;100.00;97192.06;5017624;28;20060;-79
2022/01/01 01:31:40;;;;;;;18.93;11.50;;;;;;;7.95;100.00;97194.44;5026037;28;19913;-80
2022/01/01 01:34:07;;;;;;;20.23;11.67;;;;;;;7.94;100.00;97203.22;5031727;28;20021;-80
2022/01/01 01:36:33;;;;;;;17.53;11.33;;;;;;;7.95;100.00;97197.06;5027447;28;20596;-79
2022/01/01 01:38:59;;;;;;;17.90;11.03;;;;;;;7.91;100.00;97199.06;5015329;28;20037;-80
2022/01/01 01:41:29;;;;;;;17.80;10.73;;;;;;;7.92;100.00;97197.28;5019394;28;20038;-79
2022/01/01 01:43:57;;;;;;;18.63;10.73;;;;;;;7.92;100.00;97199.91;5009161;28;20155;-80
2022/01/01 01:46:23;;;;;;;22.37;12.70;;;;;;;7.89;100.00;97202.78;5025232;28;20033;-80
2022/01/01 01:48:51;;;;;;;19.27;11.63;;;;;;;7.89;100.00;97200.97;5009663;28;20041;-79
2022/01/01 01:51:16;;;;;;;19.37;11.30;;;;;;;7.85;100.00;97198.72;5008743;28;20033;-79
2022/01/01 01:53:42;;;;;;;18.77;12.07;;;;;;;7.79;100.00;97198.22;5024183;28;20050;-79
2022/01/01 01:56:08;;;;;;;19.07;11.40;;;;;;;7.77;100.00;97184.41;5038509;28;20044;-79
2022/01/01 01:58:34;;;;;;;20.90;12.00;;;;;;;7.76;100.00;97188.00;5033281;28;20037;-79
2022/01/01 02:01:20;;;;;;;17.77;11.50;;;;;;;7.72;100.00;97199.66;5012388;28;20037;-79
2022/01/01 02:03:48;;;;;;;22.43;12.70;;;;;;;7.68;100.00;97189.53;5037763;28;20037;-86
2022/01/01 02:06:15;;;;;;;26.40;19.20;;;;;;;7.71;100.00;97189.28;5029691;28;20132;-86
2022/01/01 02:08:42;;;;;;;28.60;20.33;;;;;;;7.70;100.00;97185.84;5031347;28;20045;-85
2022/01/01 02:11:07;;;;;;;20.27;12.20;;;;;;;7.69;100.00;97178.13;4992991;28;20025;-87
2022/01/01 02:13:36;;;;;;;15.67;9.37;;;;;;;7.65;100.00;97185.38;5031670;28;20033;-86
2022/01/01 02:18:52;;;;;;;20.37;11.67;;;;;;;7.72;100.00;97185.75;5029589;28;20033;-79
2022/01/01 02:21:27;;;;;;;20.53;14.47;;;;;;;7.72;100.00;97189.19;5025152;28;20037;-79
2022/01/01 02:23:58;;;;;;;24.73;16.67;;;;;;;7.69;100.00;97194.66;5025950;28;20041;-79
2022/01/01 02:26:32;;;;;;;20.87;13.00;;;;;;;7.66;100.00;97196.69;5030062;28;20042;-79
2022/01/01 02:28:58;;;;;;;20.57;11.80;;;;;;;7.64;100.00;97195.94;5030950;28;20041;-79
2022/01/01 02:31:24;;;;;;;21.20;11.43;;;;;;;7.63;100.00;97197.75;5029751;28;20029;-79
2022/01/01 02:33:53;;;;;;;24.53;14.53;;;;;;;7.64;100.00;97203.81;5008592;28;20029;-79
2022/01/01 02:36:40;;;;;;;38.03;25.13;;;;;;;7.59;100.00;97200.72;4991009;28;20026;-79
2022/01/01 02:39:18;;;;;;;26.73;16.90;;;;;;;7.59;100.00;97206.78;5027027;28;20029;-79
2022/01/01 02:41:46;;;;;;;20.57;11.73;;;;;;;7.57;100.00;97211.28;5030117;28;20041;-79
2022/01/01 02:44:12;;;;;;;18.33;11.47;;;;;;;7.61;100.00;97207.47;5028147;28;20040;-79
2022/01/01 02:46:38;;;;;;;17.80;11.77;;;;;;;7.57;100.00;97204.25;4996158;28;20033;-79
2022/01/01 02:49:09;;;;;;;19.10;11.50;;;;;;;7.56;100.00;97209.63;5031647;28;20051;-79
2022/01/01 02:51:35;;;;;;;18.50;11.40;;;;;;;7.59;100.00;97214.63;5013409;28;20091;-79
2022/01/01 02:54:01;;;;;;;18.43;11.17;;;;;;;7.57;100.00;97213.91;5021058;28;20029;-79
2022/01/01 02:56:32;;;;;;;19.57;11.63;;;;;;;7.61;100.00;97204.03;5031283;28;20064;-79
2022/01/01 02:58:57;;;;;;;18.67;11.03;;;;;;;7.62;100.00;97210.97;5028997;28;20033;-79
2022/01/01 03:01:23;;;;;;;18.10;11.43;;;;;;;7.66;100.00;97210.59;5012624;28;20030;-79
2022/01/01 03:03:49;;;;;;;17.13;10.67;;;;;;;7.67;100.00;97214.88;5029852;28;20033;-79
2022/01/01 03:06:21;;;;;;;19.73;11.67;;;;;;;7.67;100.00;97209.63;5031423;28;20163;-80
2022/01/01 03:08:51;;;;;;;18.83;10.20;;;;;;;7.71;100.00;97205.84;5031276;28;20037;-80
2022/01/01 03:11:17;;;;;;;15.67;9.93;;;;;;;7.71;100.00;97205.84;5032687;28;20025;-79
2022/01/01 03:13:43;;;;;;;18.03;10.20;;;;;;;7.78;100.00;97204.44;5039317;28;20159;-80
2022/01/01 03:16:11;;;;;;;17.60;9.70;;;;;;;7.76;100.00;97198.47;5030793;28;20033;-79
2022/01/01 03:18:38;;;;;;;17.00;9.73;;;;;;;7.77;100.00;97209.75;5031181;28;20033;-80
2022/01/01 03:21:05;;;;;;;21.87;13.97;;;;;;;7.77;100.00;97205.34;5030953;28;20061;-80
2022/01/01 03:23:43;;;;;;;20.57;12.47;;;;;;;7.74;100.00;97202.97;5014439;28;20095;-79
2022/01/01 03:26:09;;;;;;;13.63;8.63;;;;;;;7.75;100.00;97207.28;5020127;28;20415;-80
2022/01/01 03:28:35;;;;;;;13.63;8.53;;;;;;;7.75;100.00;97206.44;5035098;28;20037;-79
2022/01/01 03:31:00;;;;;;;14.03;7.40;;;;;;;7.80;100.00;97199.06;5033614;28;20056;-80
2022/01/01 03:33:26;;;;;;;16.00;7.97;;;;;;;7.78;100.00;97204.44;5040292;28;20140;-80
2022/01/01 03:35:53;;;;;;;13.63;8.43;;;;;;;7.78;100.00;97199.19;5020642;28;20152;-80
2022/01/01 03:38:18;;;;;;;14.27;7.63;;;;;;;7.78;100.00;97193.94;5031876;28;20034;-80
2022/01/01 03:40:44;;;;;;;12.47;7.47;;;;;;;7.78;100.00;97196.56;5009663;28;20072;-79
2022/01/01 03:43:10;;;;;;;13.63;8.10;;;;;;;7.79;100.00;97192.16;5022880;28;20092;-79
2022/01/01 03:45:38;;;;;;;16.73;10.03;;;;;;;7.78;100.00;97193.13;5023613;28;20479;-80
2022/01/01 03:48:05;;;;;;;17.67;8.70;;;;;;;7.82;100.00;97196.34;5030594;28;20376;-80
2022/01/01 03:50:32;;;;;;;15.90;9.47;;;;;;;7.82;100.00;97198.97;5009276;28;20041;-79
2022/01/01 03:52:58;;;;;;;14.50;8.73;;;;;;;7.79;100.00;97208.72;5028898;28;20025;-80
2022/01/01 03:55:23;;;;;;;13.93;7.77;;;;;;;7.82;100.00;97209.44;5022531;28;20044;-80
2022/01/01 03:57:49;;;;;;;11.63;6.93;;;;;;;7.81;100.00;97216.44;5039408;28;20057;-80
2022/01/01 04:00:15;;;;;;;13.57;7.87;;;;;;;7.82;100.00;97219.91;5038682;28;20559;-80
2022/01/01 04:02:41;;;;;;;9.90;6.63;;;;;;;7.84;100.00;97218.00;5036492;28;20457;-80
2022/01/01 04:05:07;;;;;;;17.50;7.40;;;;;;;7.81;100.00;97211.19;4998290;28;20038;-80
2022/01/01 04:07:34;;;;;;;11.50;6.73;;;;;;;7.80;100.00;97214.78;5016371;28;20035;-80
2022/01/01 04:10:00;;;;;;;10.80;6.80;;;;;;;7.79;100.00;97213.94;5021941;28;20030;-80
2022/01/01 04:12:27;;;;;;;13.17;7.47;;;;;;;7.82;100.00;97212.06;5013759;28;20030;-79
2022/01/01 04:15:01;;;;;;;13.07;6.27;;;;;;;7.82;100.00;97217.28;5008028;28;20131;-79
2022/01/01 04:17:27;;;;;;;17.30;10.30;;;;;;;7.78;100.00;97216.69;4996447;28;20033;-80
2022/01/01 04:19:53;;;;;;;18.27;11.47;;;;;;;7.71;100.00;97211.09;5019341;28;20160;-80
2022/01/01 04:22:19;;;;;;;22.63;13.50;;;;;;;7.67;100.00;97214.88;5035393;28;21797;-80
2022/01/01 04:24:44;;;;;;;20.90;13.67;;;;;;;7.68;100.00;97216.56;5029374;28;20036;-80
2022/01/01 04:27:12;;;;;;;27.10;16.43;;;;;;;7.65;100.00;97218.59;5029247;28;20037;-80
2022/01/01 04:29:39;;;;;;;25.17;16.97;;;;;;;7.64;100.00;97214.28;5038705;28;20044;-80
2022/01/01 04:32:06;;;;;;;31.70;18.40;;;;;;;7.57;100.00;97213.91;5020580;28;20056;-80
2022/01/01 04:34:32;;;;;;;28.27;16.67;;;;;;;7.57;100.00;97211.28;5027490;28;20124;-80
2022/01/01 04:37:10;;;;;;;27.70;15.93;;;;;;;7.56;100.00;97212.25;5016330;28;20116;-80
2022/01/01 04:39:40;;;;;;;25.00;15.53;;;;;;;7.62;100.00;97217.03;5013208;28;20041;-80
2022/01/01 04:42:06;;;;;;;24.87;14.37;;;;;;;7.62;100.00;97211.78;5032640;28;20032;-80
2022/01/01 04:44:33;;;;;;;23.63;14.70;;;;;;;7.58;100.00;97210.34;5012268;28;20030;-80
2022/01/01 04:46:59;;;;;;;23.20;14.50;;;;;;;7.55;100.00;97203.56;5034001;28;20124;-80
2022/01/01 04:49:28;;;;;;;22.40;13.37;;;;;;;7.58;100.00;97207.75;5041351;28;20178;-79
2022/01/01 04:51:59;;;;;;;20.23;12.57;;;;;;;7.59;100.00;97208.56;5029290;28;20021;-80
2022/01/01 04:54:25;;;;;;;23.67;13.50;;;;;;;7.59;100.00;97211.19;5031920;28;20037;-80
2022/01/01 04:56:54;;;;;;;21.07;13.47;;;;;;;7.62;100.00;97205.72;5035471;28;20034;-80
2022/01/01 04:59:34;;;;;;;22.57;14.40;;;;;;;7.57;100.00;97204.25;5021269;28;20048;-80
2022/01/01 05:02:00;;;;;;;23.53;15.00;;;;;;;7.61;100.00;97198.78;5021868;28;20499;-80
2022/01/01 05:04:26;;;;;;;22.63;15.07;;;;;;;7.56;100.00;97201.78;5033104;28;20038;-80
2022/01/01 05:06:54;;;;;;;24.53;15.23;;;;;;;7.54;100.00;97214.13;5036569;28;20072;-79
2022/01/01 05:09:23;;;;;;;26.13;13.60;;;;;;;7.55;100.00;97211.41;5028724;28;20041;-80
2022/01/01 05:11:49;;;;;;;24.73;15.03;;;;;;;7.55;100.00;97207.97;5029116;28;20061;-80
2022/01/01 05:14:16;;;;;;;22.73;14.47;;;;;;;7.59;100.00;97205.94;5012215;28;20120;-80
2022/01/01 05:16:42;;;;;;;24.33;15.30;;;;;;;7.56;100.00;97210.47;5012103;28;20030;-80
2022/01/01 05:19:09;;;;;;;23.70;13.43;;;;;;;7.59;100.00;97203.34;5011615;28;20033;-80
2022/01/01 05:21:36;;;;;;;25.70;13.43;;;;;;;7.60;100.00;97210.22;4999698;28;20033;-80
2022/01/01 05:24:08;;;;;;;22.23;13.23;;;;;;;7.57;100.00;97201.66;5035643;28;20025;-80
2022/01/01 05:26:34;;;;;;;22.10;13.43;;;;;;;7.61;100.00;97199.63;5029763;28;20044;-80
2022/01/01 05:29:00;;;;;;;21.97;13.60;;;;;;;7.60;100.00;97192.72;5004723;28;20460;-80
2022/01/01 05:31:26;;;;;;;22.53;13.93;;;;;;;7.63;100.00;97189.88;5004367;28;20112;-80
2022/01/01 05:33:54;;;;;;;25.03;14.37;;;;;;;7.59;100.00;97190.25;5046444;28;20125;-80
2022/01/01 05:36:19;;;;;;;22.90;12.73;;;;;;;7.56;100.00;97183.44;5014537;28;20040;-80
2022/01/01 05:38:46;;;;;;;19.23;12.37;;;;;;;7.52;100.00;97192.50;5036457;28;20029;-80
2022/01/01 05:41:12;;;;;;;23.73;13.27;;;;;;;7.53;100.00;97194.16;5009170;28;20440;-80
2022/01/01 05:43:38;;;;;;;24.47;13.63;;;;;;;7.54;100.00;97193.19;4995552;28;20022;-80
2022/01/01 05:46:04;;;;;;;19.70;12.57;;;;;;;7.52;100.00;97203.78;5026574;28;20037;-80
2022/01/01 05:48:30;;;;;;;25.00;14.70;;;;;;;7.54;100.00;97198.44;4996805;28;20041;-79
2022/01/01 05:50:56;;;;;;;22.10;13.33;;;;;;;7.53;100.00;97194.16;5031962;28;20065;-80
2022/01/01 05:53:22;;;;;;;22.70;13.87;;;;;;;7.52;100.00;97197.72;5022697;28;20033;-79
2022/01/01 05:55:48;;;;;;;23.97;13.13;;;;;;;7.52;100.00;97197.72;5042430;28;20414;-80
2022/01/01 05:58:17;;;;;;;19.43;13.93;;;;;;;7.54;100.00;97195.81;5032438;28;20117;-80
2022/01/01 06:00:43;;;;;;;21.90;14.20;;;;;;;7.53;100.00;97202.00;5031312;28;20068;-81
2022/01/01 06:03:10;;;;;;;22.87;13.30;;;;;;;7.54;100.00;97209.75;5032569;28;20068;-80
2022/01/01 06:05:37;;;;;;;20.57;13.67;;;;;;;7.53;100.00;97208.06;5010895;28;20774;-80
2022/01/01 06:08:03;;;;;;;24.53;13.03;;;;;;;7.52;100.00;97206.41;5037652;28;20434;-79
2022/01/01 06:10:29;;;;;;;21.47;13.27;;;;;;;7.56;100.00;97207.00;5024234;28;20048;-79
2022/01/01 06:13:07;;;;;;;24.77;13.80;;;;;;;7.54;100.00;97206.28;5038216;28;20037;-79
2022/01/01 06:15:33;;;;;;;22.30;13.23;;;;;;;7.56;100.00;97214.88;5023661;28;20087;-80
2022/01/01 06:17:59;;;;;;;21.73;13.10;;;;;;;7.60;100.00;97218.91;5014273;28;20033;-80
2022/01/01 06:20:25;;;;;;;21.20;12.47;;;;;;;7.58;100.00;97215.59;5013842;28;20052;-80
2022/01/01 06:22:51;;;;;;;18.63;11.60;;;;;;;7.60;100.00;97210.22;5014177;28;20128;-80
2022/01/01 06:25:17;;;;;;;19.07;11.63;;;;;;;7.61;100.00;97224.97;5045631;28;20060;-80
2022/01/01 06:27:46;;;;;;;19.87;12.23;;;;;;;7.59;100.00;97230.34;5033156;28;20040;-80
2022/01/01 06:30:12;;;;;;;22.07;12.37;;;;;;;7.59;100.00;97230.34;5032927;28;20083;-80
2022/01/01 06:32:37;;;;;;;20.37;11.47;;;;;;;7.59;100.00;97232.13;5029988;28;20040;-80
2022/01/01 06:35:03;;;;;;;24.63;13.40;;;;;;;7.58;100.00;97231.31;5028559;28;20037;-80
2022/01/01 06:37:29;;;;;;;22.67;12.53;;;;;;;7.59;100.00;97232.13;5030312;28;20030;-80
2022/01/01 06:39:55;;;;;;;23.23;12.73;;;;;;;7.61;100.00;97233.66;5012110;28;20091;-80
2022/01/01 06:42:21;;;;;;;22.47;11.70;;;;;;;7.63;100.00;97234.38;5040073;28;20025;-80
2022/01/01 06:44:46;;;;;;;23.47;12.57;;;;;;;7.65;100.00;97239.53;5035217;28;20120;-80
2022/01/01 06:47:12;;;;;;;21.83;12.33;;;;;;;7.64;100.00;97246.50;5012638;28;20041;-80
2022/01/01 06:49:38;;;;;;;21.77;13.67;;;;;;;7.67;100.00;97248.06;5028615;28;20095;-80
2022/01/01 06:52:04;;;;;;;23.43;12.73;;;;;;;7.67;100.00;97241.06;5045206;28;20043;-80
2022/01/01 06:54:30;;;;;;;24.20;12.33;;;;;;;7.66;100.00;97246.41;5028025;28;20068;-80
2022/01/01 06:56:56;;;;;;;19.00;11.53;;;;;;;7.66;100.00;97238.56;5035679;28;20442;-80
2022/01/01 06:59:22;;;;;;;20.17;12.20;;;;;;;7.66;100.00;97247.25;5039218;28;20079;-80
2022/01/01 07:01:48;;;;;;;18.50;11.40;;;;;;;7.66;100.00;97249.88;5037704;28;20060;-80
2022/01/01 07:04:32;;;;;;;17.70;10.90;;;;;;;7.68;100.00;97244.50;5030911;28;20658;-79
2022/01/01 07:06:58;;;;;;;19.30;11.00;;;;;;;7.68;100.00;97255.84;5037922;28;20056;-80
2022/01/01 07:09:26;;;;;;;17.10;11.43;;;;;;;7.69;100.00;97249.63;5042571;28;20033;-80
2022/01/01 07:11:51;;;;;;;18.00;11.20;;;;;;;7.71;100.00;97258.22;5040002;28;20126;-80
2022/01/01 07:14:21;;;;;;;18.83;11.03;;;;;;;7.70;100.00;97250.47;5010048;28;20506;-79
2022/01/01 07:16:47;;;;;;;18.70;11.63;;;;;;;7.70;100.00;97255.69;5019230;28;20136;-80
2022/01/01 07:19:13;;;;;;;19.43;10.93;;;;;;;7.67;100.00;97256.75;5026460;28;20172;-80
2022/01/01 07:21:41;;;;;;;17.57;10.40;;;;;;;7.70;100.00;97253.09;5020087;28;20046;-79
2022/01/01 07:24:06;;;;;;;19.03;11.67;;;;;;;7.65;100.00;97245.59;5037540;28;20025;-79
2022/01/01 07:26:32;;;;;;;21.80;11.30;;;;;;;7.66;100.00;97255.09;5014268;28;20037;-79
2022/01/01 07:29:01;;;;;;;18.30;11.10;;;;;;;7.65;100.00;97256.06;5013203;28;20099;-79
2022/01/01 07:31:27;;;;;;;18.93;11.27;;;;;;;7.64;100.00;97257.00;5016944;28;20245;-79
2022/01/01 07:33:53;;;;;;;22.13;12.47;;;;;;;7.59;100.00;97259.13;5012207;28;20044;-80
2022/01/01 07:36:19;;;;;;;19.63;11.87;;;;;;;7.58;100.00;97260.09;5010273;28;20407;-79
2022/01/01 07:38:45;;;;;;;17.90;11.43;;;;;;;7.59;100.00;97267.00;5020844;28;20083;-79
2022/01/01 07:41:11;;;;;;;19.87;12.10;;;;;;;7.56;100.00;97264.59;5029243;28;20034;-79
2022/01/01 07:43:38;;;;;;;16.70;10.93;;;;;;;7.59;100.00;97261.75;5013694;28;20041;-79
2022/01/01 07:46:04;;;;;;;17.27;10.30;;;;;;;7.60;100.00;97266.03;5033713;28;20087;-79
2022/01/01 07:48:33;;;;;;;18.47;11.30;;;;;;;7.59;100.00;97269.59;5012367;28;20037;-79
2022/01/01 07:50:59;;;;;;;17.93;10.47;;;;;;;7.54;100.00;97256.00;5032014;28;20041;-80
2022/01/01 07:53:25;;;;;;;21.67;12.43;;;;;;;7.54;100.00;97254.25;5021549;28;20037;-79
2022/01/01 07:55:50;;;;;;;20.33;13.10;;;;;;;7.60;100.00;97250.31;5016540;28;20543;-79
2022/01/01 07:58:16;;;;;;;16.30;10.80;;;;;;;7.64;100.00;97254.38;5031190;28;20118;-79
2022/01/01 08:00:42;;;;;;;22.47;10.97;;;;;;;7.66;100.00;97259.50;5034355;28;20044;-79
2022/01/01 08:03:11;;;;;;;18.10;11.20;;;;;;;7.64;100.00;97257.00;5007746;28;20037;-79
2022/01/01 08:05:43;;;;;;;19.03;11.83;;;;;;;7.67;100.00;97256.75;5010276;28;20063;-79
2022/01/01 08:08:09;;;;;;;19.40;12.23;;;;;;;7.72;100.00;97259.06;5012280;28;20059;-80
2022/01/01 08:10:39;;;;;;;20.50;11.73;;;;;;;7.69;100.00;97244.41;5030496;28;20124;-80
2022/01/01 08:13:07;;;;;;;22.27;13.03;;;;;;;7.74;100.00;97247.50;5036215;28;20037;-79
2022/01/01 08:15:32;;;;;;;21.47;11.87;;;;;;;7.82;100.00;97244.31;5019761;28;20603;-80
2022/01/01 08:17:58;;;;;;;22.60;13.47;;;;;;;7.90;100.00;97235.84;5019201;28;20179;-80
2022/01/01 08:20:24;;;;;;;23.90;13.43;;;;;;;8.07;100.00;97227.53;5026846;28;20041;-79
2022/01/01 08:22:50;;;;;;;19.57;11.83;;;;;;;8.18;100.00;97240.63;5009631;28;20057;-79
2022/01/01 08:25:16;;;;;;;20.13;12.03;;;;;;;8.20;100.00;97238.72;5010646;28;20033;-79
2022/01/01 08:27:44;;;;;;;23.03;12.37;;;;;;;8.27;100.00;97226.78;5014808;28;20107;-79
2022/01/01 08:30:10;;;;;;;17.37;9.93;;;;;;;8.48;100.00;97232.19;5014712;28;20040;-79
2022/01/01 08:32:36;;;;;;;16.33;9.80;;;;;;;8.66;100.00;97226.41;5009857;28;20037;-79
2022/01/01 08:35:02;;;;;;;24.83;10.27;;;;;;;9.15;100.00;97231.16;5009412;28;20523;-79
2022/01/01 08:37:27;;;;;;;16.10;9.33;;;;;;;9.46;100.00;97236.50;5024239;28;20030;-80
2022/01/01 08:39:54;;;;;;;13.33;8.30;;;;;;;10.10;100.00;97228.41;5028067;28;20075;-80
2022/01/01 08:42:20;;;;;;;14.10;8.63;;;;;;;10.84;100.00;97229.91;5017731;28;20065;-80
2022/01/01 08:44:46;;;;;;;14.70;8.20;;;;;;;11.48;100.00;97231.16;5035275;28;20093;-80
2022/01/01 08:47:18;;;;;;;12.57;7.37;;;;;;;11.67;100.00;97235.56;5019281;28;20033;-80
2022/01/01 08:49:44;;;;;;;11.90;7.37;;;;;;;12.41;100.00;97234.81;5029503;28;20029;-80
2022/01/01 08:52:12;;;;;;;14.40;7.60;;;;;;;12.46;100.00;97236.03;5027513;28;20595;-80
2022/01/01 08:54:39;;;;;;;12.97;7.03;;;;;;;12.81;100.00;97231.81;5030574;28;20044;-80
2022/01/01 08:57:09;;;;;;;12.33;7.10;;;;;;;12.81;100.00;97234.47;5037353;28;20044;-80
2022/01/01 08:59:35;;;;;;;11.00;5.90;;;;;;;12.50;100.00;97242.66;5022959;28;20557;-80
2022/01/01 09:02:01;;;;;;;11.60;6.07;;;;;;;12.93;97.90;97227.97;5014658;28;20426;-81
2022/01/01 09:04:30;;;;;;;13.17;7.83;;;;;;;13.23;96.81;97225.94;5029863;28;20526;-81
2022/01/01 09:06:59;;;;;;;10.63;6.63;;;;;;;13.12;96.47;97220.91;5033460;28;20021;-81
2022/01/01 09:09:26;;;;;;;11.87;7.47;;;;;;;12.97;96.65;97228.50;5034743;28;20048;-80
2022/01/01 09:11:52;;;;;;;10.43;6.43;;;;;;;12.98;95.05;97225.72;5016969;28;20036;-80
2022/01/01 09:14:18;;;;;;;12.57;8.10;;;;;;;12.93;95.85;97235.91;5031086;28;20029;-80
2022/01/01 09:16:46;;;;;;;11.00;7.10;;;;;;;13.38;94.76;97240.34;5023529;28;20033;-81
2022/01/01 09:19:12;;;;;;;11.02;6.35;;;;;;;13.71;92.10;97240.56;5014353;28;20032;-80
2022/01/01 09:21:38;;;;;;;9.60;6.22;;;;;;;13.52;92.32;97254.81;5022185;28;20099;-80
2022/01/01 09:24:05;;;;;;;8.45;5.53;;;;;;;14.14;90.77;97257.38;5030925;28;20061;-80
2022/01/01 09:26:30;;;;;;;10.63;6.80;;;;;;;13.99;87.10;97272.19;5032345;28;20041;-80
2022/01/01 09:28:57;;;;;;;12.35;7.32;;;;;;;13.61;90.39;97279.47;5020748;28;20061;-80
2022/01/01 09:31:23;;;;;;;13.27;7.65;;;;;;;14.13;92.58;97282.19;5031194;28;20395;-80
2022/01/01 09:34:08;;;;;;;13.48;6.95;;;;;;;14.33;88.27;97286.28;5039794;28;20044;-81
2022/01/01 09:36:34;;;;;;;10.10;5.55;;;;;;;13.48;87.14;97285.19;5017212;28;20029;-80
2022/01/01 09:39:02;;;;;;;8.48;4.80;;;;;;;13.69;86.82;97290.13;5014503;28;20027;-80
2022/01/01 09:41:28;;;;;;;9.45;6.03;;;;;;;13.84;85.69;97278.00;5031257;28;20491;-80
2022/01/01 09:43:54;;;;;;;9.20;5.18;;;;;;;13.59;86.95;97281.47;5021393;28;20037;-80
2022/01/01 09:46:21;;;;;;;10.20;5.88;;;;;;;13.86;86.49;97278.69;5028775;28;20052;-80
2022/01/01 09:48:49;;;;;;;8.13;4.97;;;;;;;14.08;85.32;97273.88;5027220;28;20036;-80
2022/01/01 09:51:15;;;;;;;8.45;5.07;;;;;;;14.24;83.37;97281.91;5031630;28;20372;-79
2022/01/01 09:53:41;;;;;;;8.50;4.90;;;;;;;13.49;86.26;97293.94;5026174;28;20037;-87
2022/01/01 09:56:08;;;;;;;8.90;5.47;;;;;;;13.35;86.86;97290.84;5026573;28;20032;-86
2022/01/01 09:58:37;;;;;;;9.05;5.47;;;;;;;13.81;87.98;97298.66;5032372;28;20131;-87
2022/01/01 10:01:06;;;;;;;10.15;5.50;;;;;;;13.28;86.93;97286.28;5030702;28;20029;-87
2022/01/01 10:03:40;;;;;;;11.05;6.00;;;;;;;13.38;89.28;97281.75;5014198;28;20048;-86
2022/01/01 10:06:15;;;;;;;9.80;5.72;;;;;;;13.65;89.55;97280.84;5028537;28;20029;-86
2022/01/01 10:08:46;;;;;;;10.50;6.05;;;;;;;13.98;86.29;97278.44;4999632;28;20038;-87
2022/01/01 10:11:16;;;;;;;9.25;5.40;;;;;;;13.55;85.31;97280.13;5017856;28;20057;-86
2022/01/01 10:13:42;;;;;;;8.60;4.95;;;;;;;13.59;85.75;97274.38;5005976;28;20064;-86
2022/01/01 10:16:09;;;;;;;9.48;5.70;;;;;;;13.76;83.88;97271.84;5031488;28;20072;-85
2022/01/01 10:18:54;;;;;;;8.82;4.72;;;;;;;13.85;83.39;97269.13;5010516;28;20510;-85
2022/01/01 10:21:22;;;;;;;9.95;5.55;;;;;;;13.62;83.90;97273.22;5012844;28;20101;-85
2022/01/01 10:23:52;;;;;;;9.18;5.40;;;;;;;13.55;84.86;97280.94;5030230;28;20033;-85
2022/01/01 10:29:27;;;;;;;11.30;5.28;;;;;;;14.20;82.39;97267.34;5045309;28;20083;-85
2022/01/01 10:31:54;;;;;;;11.85;7.82;;;;;;;13.86;84.71;97260.19;5032004;28;20030;-86
2022/01/01 10:34:21;;;;;;;8.73;4.53;;;;;;;13.43;84.95;97261.00;5033722;28;20025;-84
2022/01/01 10:36:59;;;;;;;8.23;4.88;;;;;;;13.93;83.06;97260.41;5014741;28;20068;-84
2022/01/01 10:39:25;;;;;;;9.68;4.78;;;;;;;14.33;80.08;97261.63;5017813;28;20037;-85
2022/01/01 10:42:05;;;;;;;8.77;4.93;;;;;;;13.79;82.72;97260.97;5022460;28;20129;-85
2022/01/01 10:44:38;;;;;;;9.60;4.88;;;;;;;14.16;81.51;97258.06;5043866;28;20143;-84
2022/01/01 10:47:32;;;;;;;8.73;5.32;;;;;;;14.10;81.63;97250.75;5022086;28;20033;-84
2022/01/01 10:50:17;;;;;;;9.07;4.85;;;;;;;14.01;81.62;97252.50;5028108;28;20037;-83
2022/01/01 10:52:46;;;;;;;7.07;4.10;;;;;;;13.84;80.60;97253.38;5025711;28;20068;-84
2022/01/01 10:55:13;;;;;;;9.85;4.88;;;;;;;13.87;81.82;97242.50;5021248;28;20488;-84
2022/01/01 10:57:41;;;;;;;8.43;4.63;;;;;;;13.97;80.87;97245.88;5029446;28;20125;-84
2022/01/01 11:00:20;;;;;;;8.20;4.72;;;;;;;13.81;82.72;97253.69;5038365;28;20025;-84
2022/01/01 11:02:52;;;;;;;9.40;4.78;;;;;;;14.06;81.18;97241.47;5034602;28;20043;-84
2022/01/01 11:05:31;;;;;;;7.30;4.45;;;;;;;13.82;82.35;97240.34;5031904;28;20584;-83
2022/01/01 11:08:03;;;;;;;9.52;5.03;;;;;;;14.27;80.73;97239.28;5014029;28;20067;-84
2022/01/01 11:10:29;;;;;;;9.40;5.53;;;;;;;14.23;78.95;97235.28;5030680;28;20033;-84
2022/01/01 11:12:56;;;;;;;8.95;4.30;;;;;;;14.33;79.83;97241.28;4995171;28;20037;-84
2022/01/01 11:15:23;;;;;;;6.80;4.07;;;;;;;14.26;80.15;97229.69;5013913;28;20029;-84
2022/01/01 11:18:00;;;;;;;7.15;3.60;;;;;;;14.51;78.62;97238.59;5014050;28;20557;-84
2022/01/01 11:20:54;;;;;;;6.70;3.60;;;;;;;14.71;77.76;97228.56;5021489;28;20049;-84
2022/01/01 11:23:21;;;;;;;6.43;3.03;;;;;;;14.41;77.87;97226.44;5030907;28;20123;-85
2022/01/01 11:25:47;;;;;;;7.05;3.75;;;;;;;14.38;79.28;97223.13;5023458;28;20129;-84
2022/01/01 11:28:15;;;;;;;7.50;3.72;;;;;;;14.54;79.53;97225.03;5033472;28;20494;-84
2022/01/01 11:30:43;;;;;;;8.25;4.68;;;;;;;14.44;79.28;97215.53;5037080;28;20026;-84
2022/01/01 11:33:13;;;;;;;7.40;4.50;;;;;;;14.51;77.44;97208.66;5017207;28;20038;-84